createdAt,value
2023-05-23T00:01:43.356Z,15.70
2023-05-23T00:04:10.873Z,15.07
2023-05-23T00:06:38.953Z,17.75
2023-05-23T00:09:06.145Z,21.50
2023-05-23T00:11:33.142Z,15.57
2023-05-23T00:14:01.301Z,16.92
2023-05-23T00:16:28.727Z,15.07
2023-05-23T00:18:57.706Z,18.95
2023-05-23T00:21:24.768Z,17.90
2023-05-23T00:23:51.723Z,15.13
2023-05-23T00:26:18.638Z,14.75
2023-05-23T00:28:46.711Z,14.68
2023-05-23T00:31:13.645Z,17.25
2023-05-23T00:33:40.607Z,16.80
2023-05-23T00:36:07.568Z,17.23
2023-05-23T00:38:34.437Z,13.77
2023-05-23T00:41:02.474Z,16.58
2023-05-23T00:43:29.578Z,16.55
2023-05-23T00:45:56.816Z,15.50
2023-05-23T00:48:25.475Z,21.95
2023-05-23T00:50:53.097Z,12.70
2023-05-23T00:53:20.737Z,12.85
2023-05-23T00:55:47.973Z,15.60
2023-05-23T00:58:15.971Z,11.98
2023-05-23T01:00:45.003Z,18.25
2023-05-23T01:03:18.202Z,13.68
2023-05-23T01:05:45.885Z,12.13
2023-05-23T01:08:13.006Z,13.90
2023-05-23T01:10:40.030Z,16.48
2023-05-23T01:13:34.402Z,16.52
2023-05-23T01:16:13.382Z,14.70
2023-05-23T01:18:48.081Z,14.80
2023-05-23T01:21:19.040Z,13.07
2023-05-23T01:24:29.283Z,14.43
2023-05-23T01:27:08.684Z,11.70
2023-05-23T01:29:41.426Z,18.30
2023-05-23T01:32:12.280Z,16.75
2023-05-23T01:34:41.350Z,16.90
2023-05-23T01:37:10.505Z,14.68
2023-05-23T01:39:38.758Z,14.13
2023-05-23T01:42:06.311Z,15.88
2023-05-23T01:44:35.429Z,14.32
2023-05-23T01:47:08.369Z,13.50
2023-05-23T01:49:36.905Z,14.60
2023-05-23T01:52:04.952Z,16.17
2023-05-23T01:54:35.535Z,17.25
2023-05-23T01:57:03.101Z,19.75
2023-05-23T01:59:30.181Z,19.13
2023-05-23T02:01:58.066Z,23.90
2023-05-23T02:04:25.036Z,24.92
2023-05-23T02:06:51.954Z,28.77
2023-05-23T02:09:18.894Z,29.58
2023-05-23T02:11:45.839Z,33.78
2023-05-23T02:14:13.075Z,43.53
2023-05-23T02:16:40.190Z,39.10
2023-05-23T02:19:07.205Z,40.13
2023-05-23T02:21:35.434Z,44.83
2023-05-23T02:24:03.762Z,43.60
2023-05-23T02:26:30.819Z,36.40
2023-05-23T02:28:57.850Z,31.95
2023-05-23T02:31:25.124Z,33.42
2023-05-23T02:33:53.759Z,35.10
2023-05-23T02:36:20.990Z,29.45
2023-05-23T02:38:47.979Z,23.42
2023-05-23T02:41:15.536Z,24.38
2023-05-23T02:43:42.677Z,19.10
2023-05-23T02:46:10.335Z,15.27
2023-05-23T02:48:37.303Z,16.52
2023-05-23T02:51:04.471Z,19.73
2023-05-23T02:53:31.877Z,14.82
2023-05-23T02:55:58.844Z,16.85
2023-05-23T02:58:25.737Z,15.57
2023-05-23T03:00:52.628Z,15.65
2023-05-23T03:03:19.717Z,21.25
2023-05-23T03:05:47.102Z,13.15
2023-05-23T03:08:14.148Z,18.08
2023-05-23T03:10:41.034Z,13.40
2023-05-23T03:13:08.394Z,14.52
2023-05-23T03:18:05.203Z,14.35
2023-05-23T03:20:32.235Z,15.38
2023-05-23T03:22:59.133Z,16.85
2023-05-23T03:25:26.161Z,10.77
2023-05-23T03:27:54.660Z,16.38
2023-05-23T03:30:22.141Z,17.77
2023-05-23T03:32:49.971Z,13.15
2023-05-23T03:35:17.101Z,15.73
2023-05-23T03:37:44.011Z,15.50
2023-05-23T03:40:11.056Z,16.33
2023-05-23T03:42:39.600Z,14.80
2023-05-23T03:45:07.251Z,12.02
2023-05-23T03:47:34.597Z,13.98
2023-05-23T03:50:01.617Z,15.45
2023-05-23T03:52:28.552Z,16.15
2023-05-23T03:54:55.945Z,12.85
2023-05-23T03:57:23.209Z,18.13
2023-05-23T03:59:51.244Z,13.85
2023-05-23T04:02:18.796Z,16.60
2023-05-23T04:04:47.067Z,17.60
2023-05-23T04:07:15.758Z,14.75
2023-05-23T04:09:43.818Z,13.38
2023-05-23T04:12:12.723Z,16.77
2023-05-23T04:14:39.739Z,15.85
2023-05-23T04:17:09.370Z,16.77
2023-05-23T04:19:37.429Z,16.20
2023-05-23T04:22:04.503Z,16.65
2023-05-23T04:24:31.423Z,14.55
2023-05-23T04:26:59.441Z,17.48
2023-05-23T04:29:26.600Z,12.82
2023-05-23T04:31:55.112Z,19.73
2023-05-23T04:34:22.618Z,14.55
2023-05-23T04:36:49.909Z,10.68
2023-05-23T04:39:17.181Z,11.77
2023-05-23T04:42:01.328Z,23.00
2023-05-23T04:45:02.302Z,11.95
2023-05-23T04:47:46.674Z,8.90
2023-05-23T04:50:24.856Z,8.38
2023-05-23T04:52:51.995Z,8.73
2023-05-23T04:55:20.143Z,15.80
2023-05-23T04:57:47.404Z,9.45
2023-05-23T05:00:15.561Z,7.78
2023-05-23T05:02:42.961Z,6.85
2023-05-23T05:05:10.637Z,6.65
2023-05-23T05:07:38.143Z,7.32
2023-05-23T05:10:06.756Z,7.35
2023-05-23T05:12:35.136Z,8.82
2023-05-23T05:15:03.883Z,9.80
2023-05-23T05:17:36.896Z,17.30
2023-05-23T05:20:08.754Z,7.30
2023-05-23T05:22:40.211Z,7.97
2023-05-23T05:25:08.745Z,7.55
2023-05-23T05:27:39.549Z,7.03
2023-05-23T05:30:10.185Z,6.28
2023-05-23T05:32:48.497Z,8.38
2023-05-23T05:35:15.922Z,6.57
2023-05-23T05:37:44.912Z,8.80
2023-05-23T05:40:13.214Z,5.63
2023-05-23T05:42:42.731Z,8.02
2023-05-23T05:45:11.564Z,5.95
2023-05-23T05:47:40.735Z,7.90
2023-05-23T05:50:09.515Z,6.32
2023-05-23T05:52:39.736Z,8.75
2023-05-23T05:57:38.679Z,5.40
2023-05-23T06:00:19.038Z,5.32
2023-05-23T06:02:55.109Z,7.15
2023-05-23T06:05:39.739Z,7.70
2023-05-23T06:08:06.872Z,8.90
2023-05-23T06:10:34.025Z,11.15
2023-05-23T06:13:02.086Z,8.90
2023-05-23T06:15:30.542Z,9.10
2023-05-23T06:17:57.673Z,6.22
2023-05-23T06:20:25.264Z,9.52
2023-05-23T06:22:54.211Z,9.18
2023-05-23T06:25:21.205Z,7.45
2023-05-23T06:27:48.279Z,9.00
2023-05-23T06:30:15.699Z,11.63
2023-05-23T06:32:42.719Z,10.25
2023-05-23T06:35:10.283Z,6.53
2023-05-23T06:37:37.325Z,7.00
2023-05-23T06:40:05.526Z,7.57
2023-05-23T06:42:32.521Z,8.07
2023-05-23T06:45:18.040Z,7.07
2023-05-23T06:47:45.799Z,7.47
2023-05-23T06:50:12.896Z,9.00
2023-05-23T06:52:40.121Z,6.75
2023-05-23T06:55:07.443Z,6.15
2023-05-23T06:57:35.002Z,5.63
2023-05-23T07:00:02.202Z,9.93
2023-05-23T07:02:30.426Z,6.82
2023-05-23T07:04:57.390Z,5.60
2023-05-23T07:07:46.484Z,6.00
2023-05-23T07:10:14.063Z,10.77
2023-05-23T07:12:41.083Z,5.88
2023-05-23T07:15:09.324Z,6.38
2023-05-23T07:17:42.704Z,7.07
2023-05-23T07:20:10.293Z,7.25
2023-05-23T07:22:38.863Z,6.70
2023-05-23T07:25:06.532Z,8.25
2023-05-23T07:27:35.446Z,5.73
2023-05-23T07:30:04.621Z,8.38
2023-05-23T07:32:31.613Z,16.77
2023-05-23T07:34:59.120Z,8.13
2023-05-23T07:37:27.630Z,7.75
2023-05-23T07:39:54.715Z,5.10
2023-05-23T07:42:21.794Z,7.20
2023-05-23T07:44:49.022Z,6.40
2023-05-23T07:47:16.040Z,6.80
2023-05-23T07:49:44.597Z,8.18
2023-05-23T07:52:11.637Z,7.85
2023-05-23T07:54:39.113Z,7.10
2023-05-23T07:57:07.380Z,7.45
2023-05-23T07:59:34.594Z,8.93
2023-05-23T08:02:02.453Z,9.63
2023-05-23T08:04:29.789Z,11.60
2023-05-23T08:09:31.702Z,7.35
2023-05-23T08:11:59.403Z,7.53
2023-05-23T08:14:38.603Z,9.77
2023-05-23T08:17:22.036Z,12.10
2023-05-23T08:19:49.283Z,7.32
2023-05-23T08:22:16.457Z,8.25
2023-05-23T08:24:43.562Z,5.57
2023-05-23T08:27:10.912Z,6.78
2023-05-23T08:29:38.589Z,5.60
2023-05-23T08:32:06.497Z,6.47
2023-05-23T08:34:35.002Z,7.35
2023-05-23T08:37:02.321Z,8.88
2023-05-23T08:39:29.689Z,4.60
2023-05-23T08:42:14.098Z,6.82
2023-05-23T08:44:41.185Z,6.20
2023-05-23T08:47:09.018Z,9.95
2023-05-23T08:49:55.180Z,6.60
2023-05-23T08:52:27.678Z,8.55
2023-05-23T08:54:56.704Z,9.07
2023-05-23T08:57:23.959Z,9.35
2023-05-23T08:59:57.598Z,6.45
2023-05-23T09:02:25.195Z,5.05
2023-05-23T09:04:57.625Z,6.75
2023-05-23T09:07:26.010Z,6.72
2023-05-23T09:09:53.672Z,6.97
2023-05-23T09:12:23.763Z,6.75
2023-05-23T09:14:51.124Z,5.00
2023-05-23T09:17:19.588Z,7.95
2023-05-23T09:19:47.566Z,4.82
2023-05-23T09:22:36.429Z,4.47
2023-05-23T09:25:09.514Z,4.72
2023-05-23T09:27:38.918Z,5.53
2023-05-23T09:30:08.235Z,4.45
2023-05-23T09:32:35.349Z,6.63
2023-05-23T09:35:06.303Z,7.68
2023-05-23T09:37:35.487Z,5.85
2023-05-23T09:40:14.246Z,4.60
2023-05-23T09:42:47.979Z,5.05
2023-05-23T09:45:16.352Z,4.18
2023-05-23T09:47:54.037Z,4.57
2023-05-23T09:50:22.462Z,4.40
2023-05-23T09:52:49.810Z,4.05
2023-05-23T09:55:17.099Z,3.13
2023-05-23T09:57:45.405Z,3.65
2023-05-23T10:00:13.808Z,5.38
2023-05-23T10:03:01.915Z,5.45
2023-05-23T10:05:57.783Z,5.20
2023-05-23T10:08:34.158Z,5.50
2023-05-23T10:11:13.247Z,6.22
2023-05-23T10:13:49.697Z,9.32
2023-05-23T10:16:28.894Z,6.20
2023-05-23T10:19:01.029Z,5.60
2023-05-23T10:21:33.466Z,5.32
2023-05-23T10:24:01.178Z,5.53
2023-05-23T10:26:28.563Z,6.43
2023-05-23T10:28:57.434Z,8.15
2023-05-23T10:31:25.105Z,3.78
2023-05-23T10:34:12.615Z,6.20
2023-05-23T10:37:04.192Z,7.68
2023-05-23T10:39:37.160Z,3.97
2023-05-23T10:42:11.652Z,5.97
2023-05-23T10:44:38.971Z,6.43
2023-05-23T10:47:06.141Z,5.72
2023-05-23T10:49:47.101Z,5.53
2023-05-23T10:52:16.743Z,4.10
2023-05-23T10:54:58.418Z,3.53
2023-05-23T10:57:28.218Z,6.78
2023-05-23T10:59:55.245Z,4.95
2023-05-23T11:02:29.443Z,2.80
2023-05-23T11:05:19.670Z,2.97
2023-05-23T11:07:46.686Z,1.90
2023-05-23T11:10:14.489Z,2.33
2023-05-23T11:12:43.021Z,1.73
2023-05-23T11:15:19.428Z,2.83
2023-05-23T11:17:57.429Z,4.20
2023-05-23T11:20:27.638Z,2.47
2023-05-23T11:25:44.006Z,2.92
2023-05-23T11:28:13.092Z,1.50
2023-05-23T11:30:41.308Z,2.00
2023-05-23T11:33:16.452Z,2.40
2023-05-23T11:35:45.406Z,1.55
2023-05-23T11:38:13.846Z,1.33
2023-05-23T11:40:43.343Z,1.27
2023-05-23T11:43:13.957Z,3.95
2023-05-23T11:48:13.186Z,2.33
2023-05-23T11:50:51.904Z,2.88
2023-05-23T11:53:21.731Z,0.93
2023-05-23T11:55:50.989Z,2.80
2023-05-23T11:58:18.502Z,2.15
2023-05-23T12:00:46.271Z,3.22
2023-05-23T12:03:13.706Z,1.60
2023-05-23T12:05:44.036Z,4.50
2023-05-23T12:08:14.572Z,2.05
2023-05-23T12:11:00.753Z,2.70
2023-05-23T12:13:30.806Z,4.82
2023-05-23T12:16:01.328Z,2.83
2023-05-23T12:18:29.895Z,6.80
2023-05-23T12:21:05.881Z,5.93
2023-05-23T12:23:34.984Z,7.05
2023-05-23T12:26:10.249Z,6.78
2023-05-23T12:28:43.250Z,10.38
2023-05-23T12:31:12.442Z,5.97
2023-05-23T12:33:44.584Z,8.05
2023-05-23T12:36:12.282Z,6.13
2023-05-23T12:38:40.946Z,7.05
2023-05-23T12:41:11.942Z,10.65
2023-05-23T12:43:40.718Z,9.65
2023-05-23T12:46:10.365Z,11.55
2023-05-23T12:48:37.300Z,17.27
2023-05-23T12:51:04.424Z,6.43
2023-05-23T12:53:32.438Z,6.82
2023-05-23T12:55:59.457Z,6.10
2023-05-23T12:58:27.243Z,11.55
2023-05-23T13:00:54.992Z,8.25
2023-05-23T13:03:22.035Z,10.82
2023-05-23T13:05:48.949Z,11.15
2023-05-23T13:08:16.680Z,6.40
2023-05-23T13:10:43.543Z,11.93
2023-05-23T13:13:11.046Z,8.25
2023-05-23T13:15:38.127Z,9.02
2023-05-23T13:18:05.456Z,8.75
2023-05-23T13:20:32.441Z,7.18
2023-05-23T13:22:59.505Z,10.40
2023-05-23T13:25:26.972Z,6.72
2023-05-23T13:27:54.170Z,10.25
2023-05-23T13:30:22.372Z,4.40
2023-05-23T13:32:51.535Z,6.68
2023-05-23T13:35:18.772Z,11.77
2023-05-23T13:37:46.281Z,11.05
2023-05-23T13:40:20.907Z,11.10
2023-05-23T13:42:50.989Z,7.07
2023-05-23T13:45:18.947Z,9.02
2023-05-23T13:47:47.046Z,15.00
2023-05-23T13:50:14.090Z,9.18
2023-05-23T13:52:44.173Z,9.80
2023-05-23T13:55:11.888Z,13.70
2023-05-23T13:57:38.790Z,11.13
2023-05-23T14:00:06.480Z,11.68
2023-05-23T14:02:34.922Z,14.82
2023-05-23T14:05:01.966Z,11.48
2023-05-23T14:07:29.280Z,11.10
2023-05-23T14:09:57.554Z,8.40
2023-05-23T14:12:24.527Z,9.25
2023-05-23T14:14:51.845Z,9.48
2023-05-23T14:17:19.066Z,11.23
2023-05-23T14:19:46.318Z,13.02
2023-05-23T14:22:13.317Z,13.10
2023-05-23T14:24:40.578Z,16.20
2023-05-23T14:27:10.215Z,14.15
2023-05-23T14:29:38.176Z,12.27
2023-05-23T14:32:05.373Z,14.32
2023-05-23T14:34:32.316Z,9.23
2023-05-23T14:36:59.224Z,12.68
2023-05-23T14:39:26.202Z,10.60
2023-05-23T14:41:53.162Z,10.43
2023-05-23T14:44:20.515Z,12.63
2023-05-23T14:46:49.713Z,13.57
2023-05-23T14:49:17.917Z,13.35
2023-05-23T14:51:51.425Z,8.75
2023-05-23T14:54:19.446Z,8.15
2023-05-23T14:56:46.611Z,9.20
2023-05-23T14:59:13.663Z,11.27
2023-05-23T15:01:41.096Z,14.18
2023-05-23T15:04:11.806Z,15.27
2023-05-23T15:06:39.718Z,11.48
2023-05-23T15:09:07.683Z,11.60
2023-05-23T15:11:36.857Z,9.65
2023-05-23T15:14:03.868Z,12.05
2023-05-23T15:16:35.081Z,9.02
2023-05-23T15:19:02.131Z,12.27
2023-05-23T15:21:29.460Z,9.38
2023-05-23T15:23:58.960Z,13.80
2023-05-23T15:26:27.376Z,12.75
2023-05-23T15:28:54.353Z,20.95
2023-05-23T15:31:21.795Z,15.05
2023-05-23T15:33:49.126Z,11.85
2023-05-23T15:36:16.234Z,15.10
2023-05-23T15:38:43.869Z,9.38
2023-05-23T15:41:11.461Z,19.42
2023-05-23T15:43:38.461Z,18.50
2023-05-23T15:46:05.675Z,11.73
2023-05-23T15:48:32.986Z,13.48
2023-05-23T15:51:00.616Z,17.13
2023-05-23T15:53:27.624Z,13.80
2023-05-23T15:55:55.074Z,10.43
2023-05-23T15:58:22.352Z,11.32
2023-05-23T16:00:49.480Z,13.55
2023-05-23T16:03:16.433Z,12.88
2023-05-23T16:05:43.554Z,14.35
2023-05-23T16:08:11.034Z,16.58
2023-05-23T16:10:38.160Z,13.32
2023-05-23T16:13:05.519Z,13.27
2023-05-23T16:15:32.924Z,14.23
2023-05-23T16:18:00.726Z,20.23
2023-05-23T16:20:28.289Z,11.55
2023-05-23T16:22:55.461Z,11.35
2023-05-23T16:25:22.529Z,8.82
2023-05-23T16:27:49.498Z,14.13
2023-05-23T16:30:16.462Z,15.18
2023-05-23T16:32:43.667Z,8.75
2023-05-23T16:35:14.114Z,15.43
2023-05-23T16:40:09.866Z,18.98
2023-05-23T16:42:37.315Z,16.70
2023-05-23T16:45:05.049Z,11.32
2023-05-23T16:47:31.999Z,16.95
2023-05-23T16:49:59.001Z,14.25
2023-05-23T16:52:26.022Z,14.00
2023-05-23T16:54:53.160Z,11.52
2023-05-23T16:57:20.287Z,8.70
2023-05-23T16:59:47.172Z,19.63
2023-05-23T17:02:16.359Z,8.13
2023-05-23T17:04:43.696Z,10.40
2023-05-23T17:07:10.632Z,15.45
2023-05-23T17:09:37.694Z,9.70
2023-05-23T17:12:05.159Z,19.40
2023-05-23T17:14:32.290Z,10.70
2023-05-23T17:16:59.267Z,17.90
2023-05-23T17:19:26.458Z,14.10
2023-05-23T17:21:53.646Z,18.17
2023-05-23T17:24:21.163Z,15.65
2023-05-23T17:26:48.220Z,11.35
2023-05-23T17:29:17.384Z,21.20
2023-05-23T17:31:44.567Z,14.32
2023-05-23T17:34:12.653Z,11.05
2023-05-23T17:36:39.981Z,13.55
2023-05-23T17:39:07.360Z,17.88
2023-05-23T17:41:34.346Z,14.50
2023-05-23T17:44:02.359Z,14.32
2023-05-23T17:46:29.398Z,8.90
2023-05-23T17:48:56.336Z,10.20
2023-05-23T17:51:23.458Z,15.18
2023-05-23T17:53:53.573Z,17.65
2023-05-23T17:56:23.211Z,16.17
2023-05-23T17:58:50.713Z,15.52
2023-05-23T18:01:18.076Z,13.40
2023-05-23T18:03:45.230Z,14.27
2023-05-23T18:06:12.196Z,20.50
2023-05-23T18:08:39.104Z,14.15
2023-05-23T18:11:06.301Z,12.18
2023-05-23T18:13:33.623Z,14.98
2023-05-23T18:16:01.071Z,9.75
2023-05-23T18:18:28.429Z,11.10
2023-05-23T18:20:56.384Z,13.40
2023-05-23T18:23:23.793Z,14.05
2023-05-23T18:25:50.681Z,16.55
2023-05-23T18:28:17.652Z,9.70
2023-05-23T18:30:44.831Z,13.10
2023-05-23T18:33:11.990Z,18.52
2023-05-23T18:35:39.016Z,19.52
2023-05-23T18:38:06.748Z,9.75
2023-05-23T18:40:33.614Z,14.45
2023-05-23T18:43:00.586Z,13.45
2023-05-23T18:45:27.986Z,20.10
2023-05-23T18:47:54.889Z,12.90
2023-05-23T18:50:22.254Z,18.35
2023-05-23T18:52:49.482Z,10.70
2023-05-23T18:55:16.948Z,15.38
2023-05-23T18:57:43.839Z,12.90
2023-05-23T19:00:11.234Z,12.40
2023-05-23T19:02:43.831Z,13.57
2023-05-23T19:05:12.410Z,15.82
2023-05-23T19:07:39.627Z,12.77
2023-05-23T19:10:07.086Z,11.02
2023-05-23T19:12:34.721Z,13.02
2023-05-23T19:15:01.944Z,16.25
2023-05-23T19:17:28.926Z,24.23
2023-05-23T19:19:55.960Z,9.85
2023-05-23T19:22:23.763Z,13.52
2023-05-23T19:24:50.925Z,16.33
2023-05-23T19:27:18.352Z,10.57
2023-05-23T19:29:45.486Z,13.15
2023-05-23T19:32:12.573Z,12.68
2023-05-23T19:34:39.652Z,18.45
2023-05-23T19:37:06.585Z,13.85
2023-05-23T19:39:33.457Z,22.70
2023-05-23T19:42:00.353Z,6.68
2023-05-23T19:44:27.794Z,11.55
2023-05-23T19:46:54.799Z,14.50
2023-05-23T19:49:21.856Z,10.40
2023-05-23T19:51:48.845Z,11.68
2023-05-23T19:54:16.192Z,12.70
2023-05-23T19:56:43.679Z,14.77
2023-05-23T19:59:11.460Z,15.15
2023-05-23T20:01:38.381Z,11.27
2023-05-23T20:04:06.375Z,13.00
2023-05-23T20:06:36.939Z,18.10
2023-05-23T20:09:04.034Z,13.85
2023-05-23T20:11:31.413Z,11.88
2023-05-23T20:13:58.686Z,10.80
2023-05-23T20:16:26.434Z,18.15
2023-05-23T20:18:53.815Z,10.93
2023-05-23T20:21:21.648Z,10.27
2023-05-23T20:23:49.251Z,14.52
2023-05-23T20:26:16.400Z,20.08
2023-05-23T20:28:43.351Z,16.70
2023-05-23T20:31:10.690Z,11.82
2023-05-23T20:33:37.586Z,12.02
2023-05-23T20:36:04.793Z,14.80
2023-05-23T20:38:34.032Z,18.08
2023-05-23T20:41:06.606Z,15.18
2023-05-23T20:43:37.141Z,13.00
2023-05-23T20:46:09.928Z,13.73
2023-05-23T20:48:36.769Z,14.50
2023-05-23T20:51:05.848Z,11.25
2023-05-23T20:53:33.158Z,14.38
2023-05-23T20:56:01.199Z,20.95
2023-05-23T20:58:28.479Z,13.32
2023-05-23T21:00:56.142Z,14.25
2023-05-23T21:03:23.590Z,15.25
2023-05-23T21:05:50.462Z,17.17
2023-05-23T21:08:17.767Z,15.57
2023-05-23T21:10:48.063Z,17.17
2023-05-23T21:13:16.974Z,9.07
2023-05-23T21:15:44.089Z,16.23
2023-05-23T21:18:11.235Z,16.65
2023-05-23T21:20:38.325Z,10.20
2023-05-23T21:23:05.264Z,14.82
2023-05-23T21:25:32.302Z,8.43
2023-05-23T21:27:59.658Z,15.68
2023-05-23T21:30:26.635Z,12.15
2023-05-23T21:32:53.664Z,22.98
2023-05-23T21:35:20.709Z,14.30
2023-05-23T21:37:47.589Z,17.05
2023-05-23T21:40:14.872Z,18.10
2023-05-23T21:42:41.830Z,16.25
2023-05-23T21:45:09.463Z,14.27
2023-05-23T21:47:36.842Z,11.15
2023-05-23T21:50:04.624Z,9.00
2023-05-23T21:52:31.650Z,11.45
2023-05-23T21:54:58.566Z,13.02
2023-05-23T21:57:25.934Z,12.38
2023-05-23T21:59:53.033Z,16.92
2023-05-23T22:02:19.973Z,14.65
2023-05-23T22:04:47.295Z,15.43
2023-05-23T22:07:14.252Z,19.80
2023-05-23T22:09:41.388Z,15.70
2023-05-23T22:12:08.633Z,20.88
2023-05-23T22:14:36.167Z,10.20
2023-05-23T22:17:04.356Z,9.35
2023-05-23T22:19:31.688Z,18.40
2023-05-23T22:21:58.620Z,20.08
2023-05-23T22:24:26.299Z,13.20
2023-05-23T22:26:53.219Z,14.35
2023-05-23T22:29:20.163Z,13.80
2023-05-23T22:31:47.605Z,16.15
2023-05-23T22:34:15.057Z,15.60
2023-05-23T22:36:42.364Z,17.48
2023-05-23T22:39:09.659Z,21.85
2023-05-23T22:41:36.649Z,14.65
2023-05-23T22:44:03.713Z,20.40
2023-05-23T22:46:31.027Z,14.00
2023-05-23T22:48:58.416Z,18.13
2023-05-23T22:51:25.394Z,12.48
2023-05-23T22:53:52.938Z,19.67
2023-05-23T22:56:20.359Z,17.80
2023-05-23T22:58:47.727Z,12.57
2023-05-23T23:01:14.754Z,11.05
2023-05-23T23:03:42.088Z,9.38
2023-05-23T23:06:09.448Z,14.73
2023-05-23T23:08:37.701Z,12.57
2023-05-23T23:11:05.296Z,16.40
2023-05-23T23:13:32.231Z,18.10
2023-05-23T23:15:59.527Z,13.98
2023-05-23T23:18:26.978Z,10.95
2023-05-23T23:20:54.566Z,13.82
2023-05-23T23:23:21.479Z,11.35
2023-05-23T23:25:50.202Z,9.77
2023-05-23T23:28:17.844Z,15.90
2023-05-23T23:30:45.081Z,19.48
2023-05-23T23:33:12.869Z,13.38
2023-05-23T23:35:39.843Z,18.25
2023-05-23T23:38:06.991Z,21.58
2023-05-23T23:40:33.882Z,10.45
2023-05-23T23:43:01.266Z,18.35
2023-05-23T23:45:28.124Z,24.60
2023-05-23T23:47:55.045Z,15.82
2023-05-23T23:50:22.347Z,15.82
2023-05-23T23:52:49.968Z,14.18
2023-05-23T23:55:17.646Z,14.80
2023-05-23T23:57:44.590Z,15.02
